Latest Observation

67 Stations

10 Minute Data
as of 5/7/26 9:24 PM PDT
Station Date Time Temp (°F) RH (%) Dew Pt (°F) Wind Spd (mph) Wind Dir (°) Wind Gust (mph) Wind Gst Dir (°) Latest Rain (In) Soil Moist (%) Soil Temp (°F) Daily Rain (In) Daily Min Temp (°F) Daily Max Temp (°F) Daily Max Wind (mph)
Hobart Mills 5/7/26 2120 47.3   4.8 67   3 37.0   5.9 1.3   0.5 WNW | 296 2.2   0.4 WNW | 288 0.00 - 32.0   0.0 0.03 37.8   10.6 69.6   0.0 8.2   0.0
Prosser Dam 5/7/26 2120 52.3   3.2 68   1 42.1   3.3 3.2   3.0 SW | 232 4.7   3.2 WSW | 238 0.00 23.4   1.1 52.6   1.1 0.00 36.9   0.8 70.2   0.6 21.7   1.6
West Incline Village 5/7/26 2120 49.6   4.0 54   6 33.8   6.2 2.4   1.2 NE | 36 4.0   0.2 NE | 39 0.00 33.4   0.8 45.9   1.3 0.00 44.8   3.1 65.2   2.2 19.0   6.1
Incline Village (Fairview Blvd) 5/7/26 2120 51.9   4.8 56   15 36.6   3.3 0.8   0.8 NE | 42 3.2   3.2 NNE | 32 0.00 26.5   0.5 51.4   1.5 0.00 45.7   4.5 64.9   1.2 18.9   8.7
Incline Village (Diamond Peak) 5/7/26 2120 48.5   7.0 66   28 37.6   7.3 0.0   0.1 N | 0 0.0   1.4 NNE | 30 0.00 9.6   0.3 48.4   2.5 0.00 46.0   3.3 62.6   2.2 15.8   5.3
Incline Village (Mill Creek) 5/7/26 2120 50.1   2.6 70   15 40.6   3.8 1.6   0.8 ENE | 63 2.6   0.4 ENE | 60 0.00 11.2   0.2 46.2   1.2 0.00 45.0   4.6 64.9   0.5 16.4   7.8
Incline Village (Lakeshore Blvd) 5/7/26 2120 49.3   1.6 73   5 41.2   0.4 0.6   0.3 NE | 46 1.4   0.9 NE | 43 0.00 32.4   0.6 57.1   1.0 0.00 40.2   3.8 62.0   0.2 12.2   6.1
Glenbrook 5/7/26 2120 51.6   0.4 73   9 43.4   3.9 1.0   0.9 ESE | 119 3.0   0.1 ESE | 120 0.00 44.3   0.0 45.6   0.9 0.00 41.6   3.2 64.2   0.9 6.6   1.2
Zephyr Cove 5/7/26 2120 53.0   1.2 63   6 40.9   3.5 0.1   0.1 NNE | 14 0.9   0.9 ENE | 70 0.00 - 34.3   0.0 0.00 43.7   2.1 66.7   1.6 7.0   2.0
Kingsbury Grade 5/7/26 2120 52.7   2.0 59   10 38.7   2.1 2.7   2.7 NNW | 328 9.4   8.3 NW | 307 0.00 7.0   0.4 56.8   3.0 0.00 41.3   3.2 68.3   2.5 10.9   1.9
South Daggett Pass (Ridge) 5/7/26 2120 49.6   3.4 64   11 37.9   7.3 2.0   0.5 WNW | 284 9.9   3.2 W | 268 0.00 6.7   0.1 48.5   1.9 0.00 45.2   3.8 61.8   1.5 22.5   11.6
Palomino Valley 5/7/26 2120 67.4   6.4 27   10 32.4   2.0 0.3   0.3 SSW | 192 2.4   2.4 SSW | 193 0.00 7.0   0.1 69.8   1.6 0.00 45.8   0.0 80.3   1.9 28.7   8.0
East Cold Springs 5/7/26 2120 61.2   0.1 37   21 34.6   11.6 9.4   4.4 W | 277 14.5   8.1 WNW | 283 0.00 1.8   0.1 60.1   1.3 0.00 49.8   2.4 75.0   1.9 24.8   4.5
Peavine 5/7/26 2120 58.9   3.0 35   14 31.5   11.3 13.2   8.2 SSW | 211 22.7   13.4 SSW | 209 0.00 - 53.4   0.0 0.00 52.2   2.7 71.7   2.1 25.3   6.8
West Verdi Peak 5/7/26 2120 54.3   5.5 52   4 37.2   7.0 4.6   3.7 SE | 138 8.4   4.1 SSE | 155 0.00 20.9   1.0 56.3   1.6 0.00 47.6   4.6 70.1   0.2 23.7   7.6
West Verdi 5/7/26 2120 62.1   1.0 43   1 39.1   1.7 2.5   0.7 S | 177 6.6   3.2 S | 178 0.00 8.2   0.1 65.9   1.8 0.00 49.8   4.4 75.0   0.7 25.2   8.9
South Verdi 5/7/26 2120 61.2   4.0 42   1 37.7   4.1 24.0   13.8 WSW | 248 29.4   15.0 WSW | 248 0.00 16.8   0.3 65.7   0.5 0.00 50.0   3.4 72.0   0.4 34.9   13.0
Northwest Reno 5/7/26 2120 63.8   3.2 33   6 34.2   6.9 25.8   13.8 W | 276 34.0   19.5 WNW | 282 0.00 24.0   0.2 67.4   2.2 0.00 54.6   1.4 75.3   0.2 36.8   13.8
North Lawton 5/7/26 2120 61.9   3.5 40   4 37.6   5.7 12.3   6.6 WSW | 240 19.9   11.9 SW | 225 0.00 - 39.1   0.0 0.00 52.7   4.0 75.7   1.4 29.3   2.5
West Reno (Mogul) 5/7/26 2120 64.2   1.8 26   16 28.2   13.8 13.0   10.8 SW | 231 22.4   14.7 SW | 226 0.00 37.2   0.6 61.8   1.4 0.00 50.9   1.4 75.4   1.2 28.8   6.4
Caughlin (Hunter Lake Trail) 9/16/25 0800 59.7   3.5 41   11 35.9   2.7 0.0   0.0 N | 0 0.0   0.0 ENE | 66 0.00 15.7   0.0 69.8   0.5 0.00 55.7   3.2 67.7   9.1 9.4   0.9
ArrowCreek 5/7/26 2120 64.3   0.2 27   7 29.9   5.3 0.1   11.1 NE | 44 4.2   11.3 NE | 48 0.00 - 32.0   0.0 0.00 51.6   2.5 76.2   2.2 23.5   4.7
Tracy 5/7/26 2120 68.3   1.2 35   8 39.5   5.4 10.7   9.5 W | 265 15.3   12.8 W | 264 0.00 8.0   0.0 67.6   2.8 0.00 55.6   1.6 82.7   3.6 34.6   16.3
Virginia Highlands 5/7/26 2120 58.4   6.0 46   18 37.4   7.1 6.1   2.8 WSW | 247 10.7   6.6 WSW | 252 0.00 8.2   0.2 57.0   1.5 0.00 53.3   2.2 72.0   1.9 19.0   0.4
Virginia City 5/7/26 2120 57.9   2.7 47   16 37.9   7.6 8.8   6.7 WNW | 290 14.5   10.8 W | 280 0.00 8.5   0.0 59.3   2.3 0.00 54.3   4.8 70.0   0.4 27.6   3.4
Six Mile Canyon 9/9/25 0630 60.2   9.6 37   6 33.7   4.8 4.1   2.5 W | 277 6.1   2.9 WNW | 286 0.00 12.5   0.0 75.5   0.7 0.00 57.9   7.6 64.4   1.9 7.0   3.9
Mt Rose Highway 4/30/26 0510 40.8   4.7 47   13 22.3   1.3 2.3   0.2 WSW | 243 4.8   2.1 WSW | 246 0.00 24.1   0.3 43.0   0.8 0.00 40.5   4.7 43.0   5.3 7.7   0.4
Pleasant Valley 5/7/26 2120 62.9   1.0 42   2 39.7   2.1 2.7   3.0 WNW | 287 7.3   0.9 W | 272 0.00 2.8   0.1 65.4   2.7 0.00 47.8   2.6 75.3   0.4 25.6   7.8
New Washoe City 5/7/26 2120 62.0   2.6 45   4 40.3   4.9 6.7   3.0 SSW | 194 15.3   9.1 SSW | 197 0.00 4.5   0.1 61.0   2.3 0.00 47.3   2.0 74.2   0.8 27.3   6.3
Franktown Creek 5/7/26 2120 65.2   8.9 27   23 30.2   7.6 6.4   6.4 W | 262 22.7   22.7 NW | 315 0.00 11.2   0.1 56.8   1.8 0.00 46.5   2.5 73.6   1.2 27.0   11.8
Musgrove Creek 5/7/26 2120 59.6   4.7 49   15 40.3   5.5 6.0   1.0 SSW | 204 12.9   2.4 S | 186 0.00 44.9   0.2 53.8   1.1 0.00 54.1   4.7 71.2   0.0 20.5   8.0
East Carson 11/23/24 0110 28.6   28.4 - - 4.7   11.0 SW | 220 14.7   10.1 SW | 219 0.02 - 50.9   0.1 0.02 -25.9   79.1 42.9   14.6 16.0   10.7
Kings Canyon 5/7/26 2120 62.0   1.3 46   12 41.3   6.7 11.0   4.5 SW | 227 24.1   10.3 SSW | 211 0.00 15.0   0.2 62.9   1.5 0.00 47.6   4.4 73.0   0.5 24.1   2.4
Carson City (Voltaire Canyon) 5/7/26 2120 63.5   4.1 43   16 40.7   8.3 4.9   1.3 SSE | 158 10.3   2.1 SSE | 168 0.00 2.8   0.1 61.3   1.6 0.01 54.2   4.4 74.2   0.4 26.1   4.3
Jacks Valley 5/7/26 2120 61.4   4.2 53   10 43.9   1.4 12.7   2.7 WSW | 251 20.7   2.2 WSW | 250 0.00 13.8   0.2 71.4   2.7 0.00 49.2   4.7 74.0   0.6 31.4   10.8
Genoa 5/7/26 2120 63.2   2.6 46   7 42.1   2.1 2.7   1.5 SSE | 166 9.6   4.5 SSE | 149 0.00 8.2   1.0 65.8   2.2 0.00 47.8   2.0 76.7   0.5 21.2   9.2
South Genoa (Walleys Hot Springs) 5/7/26 2120 67.1   5.6 38   11 40.5   4.4 11.7   2.0 WNW | 296 19.9   2.9 W | 276 0.00 14.7   1.2 64.5   2.3 0.00 44.3   1.5 77.7   1.2 21.5   0.9
SW Gardnerville (HWY 88) 5/7/26 2120 57.2   3.5 53   1 40.3   2.5 1.9   3.2 NW | 306 4.2   2.7 N | 1 0.00 3.4   0.0 59.8   2.6 0.00 41.2   0.4 75.9   1.4 27.4   13.8
Sheridan 5/7/26 2120 61.5   2.1 28   7 28.4   7.5 4.8   2.8 S | 180 7.5   3.0 S | 190 0.00 4.7   0.9 64.2   2.2 0.00 44.6   0.7 77.7   2.9 29.6   17.8
Ruhenstroth 5/7/26 2120 64.0   3.6 36   8 36.3   2.1 4.5   1.3 NNE | 21 8.4   3.6 NE | 38 0.00 12.7   0.0 65.0   2.5 0.00 44.9   2.4 78.4   3.1 23.1   6.1
Double Spring 5/7/26 2120 54.4   2.0 57   13 39.3   4.5 3.8   3.8 NNW | 339 8.1   7.2 NNE | 17 0.00 31.3   0.3 62.1   3.3 0.00 37.9   0.5 72.1   2.9 27.0   7.0
North Topaz Lake 5/7/26 2120 63.8   3.1 37   10 37.3   5.4 9.6   2.0 NW | 320 14.4   5.1 NW | 317 0.00 9.6   0.2 66.7   4.2 0.00 54.5   7.2 75.1   4.3 23.1   7.2
Wild Oat Mountain 5/7/26 2120 62.5   0.3 34   5 34.0   3.5 11.0   6.8 W | 261 18.5   12.3 WSW | 258 0.00 16.8   0.1 62.3   1.5 0.00 53.7   6.7 73.2   3.9 26.3   10.8
Smith Valley 5/7/26 2120 67.1   1.8 34   4 38.0   4.5 1.3   8.6 SSE | 147 6.0   9.4 ESE | 121 0.00 5.9   0.0 66.9   2.8 0.00 49.3   5.4 80.4   5.9 24.2   8.8
Pine Grove Mountain 5/7/26 2120 52.5   1.4 40   6 29.2   2.5 14.9   11.5 WSW | 258 20.9   15.3 W | 271 0.00 21.8   0.9 56.6   3.1 0.00 51.4   7.3 64.8   5.3 29.2   12.2
Paradise Hill 5/7/26 2120 71.9   1.9 18   2 25.6   1.5 10.1   9.4 NW | 308 12.7   9.8 NW | 320 0.00 8.0   0.1 64.4   0.6 0.00 45.6   0.7 81.7   5.2 33.4   14.4
Winnemucca 5/7/26 2120 73.0   9.0 16   7 24.4   1.5 8.7   0.6 NW | 308 15.5   4.6 WNW | 303 0.00 6.0   0.0 64.7   1.1 0.00 53.1   9.2 81.2   5.1 34.6   18.8
NE Elko 5/7/26 2120 64.7   9.0 21   12 24.2   3.5 2.1   1.4 ENE | 63 3.5   0.5 ENE | 69 0.00 12.5   0.0 64.9   0.7 0.00 37.9   5.2 76.4   4.1 31.6   8.3
North Elko 5/7/26 2120 64.9   1.3 22   4 25.5   3.0 9.6   2.2 NNW | 334 13.0   4.7 NNW | 338 0.00 28.5   0.1 60.7   2.5 0.00 49.1   9.7 74.7   5.5 34.0   9.4
South Elko 5/7/26 2120 105.9   32.5 54   20 85.3   41.8 2.2   0.8 NNW | 339 6.6   2.4 NW | 318 0.00 18.6   0.0 62.8   2.1 0.00 55.3   10.5 - 31.4   10.3
Lamoille 1/28/26 1720 33.2   0.5 65   17 22.8   6.3 5.8   1.5 SSE | 166 7.7   1.9 SE | 139 0.00 12.2   0.0 33.4   0.1 0.02 23.5   2.0 36.5   5.9 25.6   17.4
Reid Gardner Sub 5/6/26 1130 73.4   2.5 26   2 36.5   0.4 2.6   2.7 SSW | 196 7.6   4.5 SW | 218 0.00 24.0   0.1 70.1   0.4 0.00 50.0   4.6 74.0   1.7 7.6   7.8
Corn Creek 5/7/26 2120 83.1   8.5 12   12 26.1   9.3 2.8   2.8 SE | 124 6.7   0.1 E | 81 0.00 4.0   0.1 82.5   3.5 0.00 62.1   3.1 89.7   6.7 20.1   3.3
Lucky Strike 5/7/26 2120 70.9   6.6 13   9 17.6   7.3 7.0   2.7 WSW | 240 9.8   3.5 SW | 223 0.00 4.6   0.0 76.9   3.2 0.00 57.1   4.2 77.5   6.4 19.8   9.8
Lower Angel Peak 5/7/26 2120 60.2   4.9 20   9 19.1   4.6 3.9   1.1 SSW | 195 5.7   2.1 SSW | 213 0.00 10.2   0.1 60.2   2.3 0.00 46.0   3.9 72.3   7.0 18.8   6.5
Angel Peak 5/7/26 2120 55.6   6.6 21   11 15.9   4.6 12.4   7.7 WNW | 284 20.9   10.1 WNW | 302 0.00 3.6   0.0 59.6   3.8 0.00 46.4   9.8 63.4   7.2 25.0   6.2
Upper Kyle Canyon 5/7/26 2120 56.6   4.8 21   9 16.8   4.7 2.0   0.0 N | 351 6.1   0.9 N | 6 0.00 13.4   0.1 59.4   2.0 0.00 44.0   4.8 66.5   6.8 17.0   6.0
Mt Charleston 5/7/26 2120 54.9   4.5 24   10 19.1   4.6 1.7   0.6 WSW | 240 4.0   1.9 W | 279 0.00 18.2   0.0 50.4   1.2 0.00 46.2   7.6 66.9   6.3 13.4   6.2
Mid Kyle Canyon 5/7/26 2120 59.6   4.5 21   9 20.1   4.5 11.2   2.5 NW | 305 15.3   3.6 WNW | 291 0.00 7.1   0.0 63.8   3.2 0.00 48.8   7.3 72.6   6.3 20.2   5.1
Blue Diamond 5/7/26 2120 80.0   6.4 15   10 27.6   7.6 2.9   1.3 NW | 326 8.2   4.5 NNW | 341 0.00 3.1   0.0 76.1   0.4 0.00 50.1   5.8 87.0   7.8 18.5   0.2
Artesian Sub 5/7/26 2120 88.1   5.0 13   7 31.0   6.3 1.9   1.8 SE | 128 4.0   1.7 SE | 146 0.00 13.3   0.0 74.3   0.2 0.00 66.4   2.8 95.5   7.7 10.7   2.0
North Henderson 5/7/26 2120 88.7   6.3 14   6 32.6   4.3 0.0   1.9 N | 0 0.0   3.5 SSE | 148 0.00 8.8   0.1 80.3   1.1 0.00 65.3   2.6 94.5   7.1 12.3   3.8
Sandy Valley 5/7/26 2120 82.7   5.7 15   9 30.9   6.6 2.3   4.5 NNE | 21 3.7   4.3 NNE | 16 0.00 4.6   0.1 85.8   2.5 0.00 59.3   5.8 90.0   8.0 19.1   2.5
Searchlight 5/7/26 2120 73.6   8.0 16   11 24.6   6.2 1.2   2.9 NNE | 32 4.0   1.2 NNE | 30 0.00 4.8   0.0 83.5   3.4 0.00 56.2   8.4 86.9   8.7 22.6   0.7
Laughlin 5/7/26 2120 89.3   4.4 12   11 29.2   13.5 5.7   5.7 NNE | 27 8.3   6.6 NE | 34 0.00 4.2   0.1 86.1   3.0 0.00 68.9   6.5 99.7   7.4 23.0   4.2
31Mission Hills 5/7/26 2120 85.4   6.3 12   6 28.0   4.8 6.7   5.6 SSE | 160 7.7   5.2 SSE | 155 0.00 4.0   0.1 91.8   3.8 0.00 67.9   8.2 91.2   7.6 17.9   4.0
32 Enterprise Sierra Cliffs 5/7/26 2120 82.1   5.9 12   9 23.7   9.0 8.1   0.9 WSW | 240 10.7   0.2 WSW | 239 0.00 2.4   0.1 84.8   4.2 0.00 66.9   6.0 88.8   7.1 14.3   0.5
Max     105.9 73 85.3 25.8 - 34.0 - 0.00 44.9 91.8 0.03 68.9 99.7 36.8
Avg     63.9 37 34.0 6.0 - 10.5 - 0.00 13.2 61.9 - - - -
Min     47.3 12 15.9 0.0 - 0.0 - 0.00 1.8 32.0 0.00 36.9 61.8 6.6